Terminal Aerodrome Forecast
Issued by NWS Houston/Galveston, TX

Home | Current Version | Previous Version | Text Only | Print | Product List | Glossary On
Versions: 1 2 3 4 5 6 7 8 9 10 11 12 13 14 15 16
000
FTUS44 KHGX 211459 AAB
TAFCLL
TAF AMD
KCLL 211459Z 2115/2212 17006KT P6SM OVC013
     FM211800 19012KT P6SM SCT015 SCT025
     FM212000 19013KT P6SM FEW035 SCT250
     FM220500 VRB05KT P6SM VCSH FEW040 SCT080=

USA.gov is the U.S. government's official web portal to all federal, state and local government web resources and services.